createdAt,value
2023-03-02T00:01:00.817Z,5.54
2023-03-02T00:03:29.048Z,5.37
2023-03-02T00:05:57.946Z,4.35
2023-03-02T00:08:26.300Z,4.39
2023-03-02T00:10:57.066Z,4.66
2023-03-02T00:13:26.150Z,4.81
2023-03-02T00:15:53.941Z,4.81
2023-03-02T00:18:21.697Z,5.31
2023-03-02T00:20:49.559Z,5.33
2023-03-02T00:23:17.705Z,5.21
2023-03-02T00:25:45.630Z,5.27
2023-03-02T00:28:14.795Z,5.10
2023-03-02T00:30:42.652Z,5.21
2023-03-02T00:33:10.540Z,5.37
2023-03-02T00:35:39.127Z,5.17
2023-03-02T00:38:08.204Z,5.02
2023-03-02T00:40:36.185Z,4.88
2023-03-02T00:43:04.328Z,5.04
2023-03-02T00:45:33.514Z,5.17
2023-03-02T00:48:01.224Z,5.21
2023-03-02T00:50:29.092Z,5.35
2023-03-02T00:52:56.837Z,5.21
2023-03-02T00:55:24.735Z,5.13
2023-03-02T00:57:55.165Z,5.19
2023-03-02T01:00:29.310Z,5.10
2023-03-02T01:03:02.668Z,4.98
2023-03-02T01:05:30.569Z,5.02
2023-03-02T01:07:58.598Z,5.32
2023-03-02T01:10:26.416Z,5.34
2023-03-02T01:12:54.169Z,5.42
2023-03-02T01:15:22.187Z,5.34
2023-03-02T01:17:49.916Z,5.25
2023-03-02T01:20:19.570Z,5.24
2023-03-02T01:22:47.457Z,5.27
2023-03-02T01:25:15.467Z,5.40
2023-03-02T01:27:43.370Z,5.18
2023-03-02T01:30:12.602Z,5.09
2023-03-02T01:32:40.445Z,5.23
2023-03-02T01:35:09.020Z,4.93
2023-03-02T01:37:38.173Z,5.18
2023-03-02T01:40:06.877Z,5.32
2023-03-02T01:42:38.069Z,5.46
2023-03-02T01:45:06.930Z,5.27
2023-03-02T01:47:39.724Z,5.32
2023-03-02T01:50:24.178Z,5.54
2023-03-02T01:52:58.556Z,5.69
2023-03-02T01:55:30.282Z,5.63
2023-03-02T01:57:59.157Z,5.50
2023-03-02T02:00:31.012Z,5.46
2023-03-02T02:03:09.519Z,5.36
2023-03-02T02:05:40.401Z,5.20
2023-03-02T02:08:10.418Z,4.89
2023-03-02T02:10:40.667Z,4.60
2023-03-02T02:13:11.668Z,4.83
2023-03-02T02:15:41.681Z,5.28
2023-03-02T02:18:13.440Z,4.91
2023-03-02T02:20:45.405Z,5.14
2023-03-02T02:23:27.332Z,5.16
2023-03-02T02:26:18.443Z,5.21
2023-03-02T02:28:57.914Z,4.85
2023-03-02T02:31:36.476Z,5.26
2023-03-02T02:34:11.877Z,4.98
2023-03-02T02:36:43.083Z,4.65
2023-03-02T02:39:20.284Z,4.66
2023-03-02T02:41:52.776Z,4.25
2023-03-02T02:44:21.160Z,4.53
2023-03-02T02:46:49.149Z,4.50
2023-03-02T02:49:38.088Z,4.71
2023-03-02T02:52:07.814Z,4.81
2023-03-02T02:54:37.515Z,4.80
2023-03-02T02:57:08.159Z,4.66
2023-03-02T02:59:40.062Z,4.46
2023-03-02T03:02:16.387Z,4.58
2023-03-02T03:04:44.298Z,4.40
2023-03-02T03:07:20.699Z,4.48
2023-03-02T03:09:55.770Z,4.23
2023-03-02T03:12:27.884Z,4.36
2023-03-02T03:14:56.680Z,4.48
2023-03-02T03:17:24.483Z,4.53
2023-03-02T03:20:06.223Z,4.20
2023-03-02T03:22:37.808Z,4.92
2023-03-02T03:25:07.468Z,4.39
2023-03-02T03:27:36.811Z,3.81
2023-03-02T03:30:06.550Z,3.80
2023-03-02T03:32:36.233Z,4.05
2023-03-02T03:35:08.663Z,3.91
2023-03-02T03:37:37.296Z,4.48
2023-03-02T03:40:06.803Z,4.01
2023-03-02T03:42:37.139Z,3.93
2023-03-02T03:45:06.040Z,3.62
2023-03-02T03:47:34.845Z,4.10
2023-03-02T03:50:04.616Z,3.96
2023-03-02T03:52:33.102Z,4.15
2023-03-02T03:55:09.681Z,3.96
2023-03-02T03:57:39.041Z,3.99
2023-03-02T04:00:10.510Z,3.91
2023-03-02T04:02:42.098Z,4.04
2023-03-02T04:05:11.604Z,3.88
2023-03-02T04:07:40.995Z,4.11
2023-03-02T04:10:10.446Z,4.41
2023-03-02T04:12:43.016Z,4.38
2023-03-02T04:15:15.864Z,4.16
2023-03-02T04:17:45.948Z,3.59
2023-03-02T04:20:17.325Z,4.16
2023-03-02T04:22:51.160Z,4.07
2023-03-02T04:25:23.185Z,4.34
2023-03-02T04:27:55.617Z,4.73
2023-03-02T04:30:27.939Z,4.37
2023-03-02T04:32:57.469Z,4.36
2023-03-02T04:35:27.418Z,4.29
2023-03-02T04:37:55.583Z,4.69
2023-03-02T04:40:23.427Z,4.86
2023-03-02T04:42:51.412Z,4.22
2023-03-02T04:45:20.716Z,4.20
2023-03-02T04:47:48.548Z,4.64
2023-03-02T04:50:16.907Z,4.81
2023-03-02T04:52:44.667Z,4.71
2023-03-02T04:55:19.122Z,5.12
2023-03-02T04:57:46.945Z,5.05
2023-03-02T05:00:16.930Z,4.70
2023-03-02T05:02:46.838Z,4.44
2023-03-02T05:05:17.441Z,4.82
2023-03-02T05:07:45.339Z,4.86
2023-03-02T05:10:14.435Z,5.28
2023-03-02T05:12:58.247Z,4.83
2023-03-02T05:15:28.054Z,4.99
2023-03-02T05:17:58.025Z,4.97
2023-03-02T05:20:27.605Z,4.99
2023-03-02T05:22:56.591Z,4.65
2023-03-02T05:25:44.246Z,4.69
2023-03-02T05:28:12.361Z,4.68
2023-03-02T05:30:40.420Z,4.43
2023-03-02T05:33:09.918Z,4.89
2023-03-02T05:35:37.850Z,4.65
2023-03-02T05:38:06.152Z,4.76
2023-03-02T05:40:34.469Z,5.17
2023-03-02T05:43:02.533Z,5.15
2023-03-02T05:45:32.794Z,4.95
2023-03-02T05:48:00.818Z,5.21
2023-03-02T05:50:30.065Z,5.50
2023-03-02T05:52:58.246Z,5.26
2023-03-02T05:55:26.202Z,5.22
2023-03-02T05:57:54.274Z,5.22
2023-03-02T06:00:23.048Z,4.70
2023-03-02T06:02:51.102Z,4.99
2023-03-02T06:05:20.212Z,5.32
2023-03-02T06:07:49.537Z,5.28
2023-03-02T06:10:17.944Z,5.61
2023-03-02T06:12:45.823Z,5.59
2023-03-02T06:15:13.734Z,5.43
2023-03-02T06:17:41.667Z,5.71
2023-03-02T06:20:11.558Z,5.92
2023-03-02T06:22:42.155Z,5.98
2023-03-02T06:25:12.716Z,5.42
2023-03-02T06:27:42.079Z,5.95
2023-03-02T06:30:14.121Z,5.73
2023-03-02T06:32:42.184Z,4.84
2023-03-02T06:35:21.669Z,4.81
2023-03-02T06:37:49.712Z,5.55
2023-03-02T06:40:21.759Z,4.89
2023-03-02T06:42:49.810Z,4.14
2023-03-02T06:45:18.162Z,4.69
2023-03-02T06:47:46.351Z,5.35
2023-03-02T06:50:15.929Z,5.24
2023-03-02T06:52:43.957Z,5.36
2023-03-02T06:55:12.331Z,5.64
2023-03-02T06:57:42.154Z,5.32
2023-03-02T07:00:17.294Z,5.42
2023-03-02T07:02:46.264Z,5.32
2023-03-02T07:05:14.625Z,5.30
2023-03-02T07:07:42.749Z,5.27
2023-03-02T07:10:12.228Z,5.05
2023-03-02T07:12:40.845Z,5.01
2023-03-02T07:15:14.182Z,5.50
2023-03-02T07:17:43.995Z,5.87
2023-03-02T07:20:14.158Z,5.81
2023-03-02T07:22:43.152Z,5.76
2023-03-02T07:25:11.885Z,5.42
2023-03-02T07:27:40.257Z,5.93
2023-03-02T07:30:11.310Z,5.86
2023-03-02T07:32:39.151Z,6.03
2023-03-02T07:35:07.632Z,5.99
2023-03-02T07:37:35.622Z,6.24
2023-03-02T07:40:04.077Z,6.05
2023-03-02T07:42:31.914Z,6.36
2023-03-02T07:45:02.088Z,6.52
2023-03-02T07:47:31.318Z,6.37
2023-03-02T07:49:59.386Z,6.53
2023-03-02T07:52:29.417Z,6.01
2023-03-02T07:54:57.271Z,5.43
2023-03-02T07:57:25.042Z,5.51
2023-03-02T07:59:52.859Z,5.72
2023-03-02T08:02:21.376Z,5.74
2023-03-02T08:04:50.558Z,6.97
2023-03-02T08:07:18.361Z,6.18
2023-03-02T08:09:46.204Z,5.76
2023-03-02T08:12:13.997Z,6.22
2023-03-02T08:14:41.730Z,6.03
2023-03-02T08:17:09.712Z,6.31
2023-03-02T08:19:37.634Z,6.88
2023-03-02T08:22:06.952Z,7.03
2023-03-02T08:24:34.826Z,6.42
2023-03-02T08:27:03.184Z,6.83
2023-03-02T08:29:32.011Z,7.60
2023-03-02T08:32:00.330Z,6.75
2023-03-02T08:34:28.502Z,6.74
2023-03-02T08:36:56.334Z,6.73
2023-03-02T08:39:30.102Z,7.39
2023-03-02T08:41:58.540Z,6.64
2023-03-02T08:44:27.076Z,7.44
2023-03-02T08:46:55.079Z,6.92
2023-03-02T08:49:22.824Z,6.78
2023-03-02T08:51:53.638Z,6.69
2023-03-02T08:54:22.677Z,6.82
2023-03-02T08:56:51.799Z,8.07
2023-03-02T08:59:21.002Z,6.36
2023-03-02T09:01:48.978Z,5.86
2023-03-02T09:04:16.921Z,6.34
2023-03-02T09:06:45.945Z,5.77
2023-03-02T09:09:15.610Z,6.10
2023-03-02T09:11:44.804Z,5.74
2023-03-02T09:14:14.452Z,5.72
2023-03-02T09:16:42.304Z,5.47
2023-03-02T09:19:11.293Z,6.79
2023-03-02T09:21:39.264Z,6.42
2023-03-02T09:24:07.520Z,6.73
2023-03-02T09:26:36.078Z,6.65
2023-03-02T09:29:03.872Z,5.76
2023-03-02T09:31:33.449Z,6.40
2023-03-02T09:34:01.526Z,6.26
2023-03-02T09:36:32.531Z,7.05
2023-03-02T09:39:00.453Z,6.76
2023-03-02T09:41:52.352Z,6.52
2023-03-02T09:44:44.129Z,6.67
2023-03-02T09:47:33.397Z,6.60
2023-03-02T09:50:11.737Z,8.18
2023-03-02T09:52:49.064Z,6.56
2023-03-02T09:55:20.455Z,6.70
2023-03-02T09:57:49.314Z,6.11
2023-03-02T10:00:25.631Z,5.52
2023-03-02T10:03:05.151Z,7.51
2023-03-02T10:05:41.899Z,8.56
2023-03-02T10:08:14.072Z,8.23
2023-03-02T10:10:46.142Z,8.90
2023-03-02T10:13:24.763Z,9.08
2023-03-02T10:16:06.746Z,9.26
2023-03-02T10:18:41.702Z,8.44
2023-03-02T10:21:21.524Z,9.77
2023-03-02T10:23:57.421Z,9.22
2023-03-02T10:26:38.600Z,10.07
2023-03-02T10:29:20.415Z,10.18
2023-03-02T10:31:52.861Z,10.06
2023-03-02T10:34:25.524Z,9.11
2023-03-02T10:36:53.290Z,8.23
2023-03-02T10:39:21.251Z,7.89
2023-03-02T10:41:52.593Z,8.60
2023-03-02T10:44:24.968Z,9.44
2023-03-02T10:46:53.823Z,10.00
2023-03-02T10:49:29.057Z,9.50
2023-03-02T10:52:02.226Z,9.40
2023-03-02T10:54:31.419Z,9.30
2023-03-02T10:57:03.309Z,9.83
2023-03-02T10:59:43.275Z,10.31
2023-03-02T11:02:18.281Z,10.50
2023-03-02T11:04:47.540Z,10.15
2023-03-02T11:07:18.094Z,9.36
2023-03-02T11:10:00.108Z,8.72
2023-03-02T11:12:28.037Z,8.61
2023-03-02T11:15:03.604Z,10.22
2023-03-02T11:17:34.136Z,10.22
2023-03-02T11:20:04.522Z,10.24
2023-03-02T11:22:39.901Z,10.35
2023-03-02T11:25:13.798Z,9.93
2023-03-02T11:27:45.092Z,9.85
2023-03-02T11:30:16.933Z,9.94
2023-03-02T11:32:50.434Z,10.99
2023-03-02T11:35:29.370Z,10.98
2023-03-02T11:38:04.693Z,10.35
2023-03-02T11:40:37.850Z,10.90
2023-03-02T11:43:05.753Z,11.46
2023-03-02T11:45:37.402Z,11.42
2023-03-02T11:48:09.928Z,10.42
2023-03-02T11:50:51.120Z,9.65
2023-03-02T11:53:20.863Z,9.39
2023-03-02T11:55:50.791Z,8.77
2023-03-02T11:58:21.349Z,9.93
2023-03-02T12:00:50.836Z,9.71
2023-03-02T12:03:38.253Z,10.52
2023-03-02T12:06:25.718Z,11.09
2023-03-02T12:08:56.738Z,11.22
2023-03-02T12:11:36.300Z,10.50
2023-03-02T12:14:07.222Z,10.03
2023-03-02T12:16:37.882Z,9.93
2023-03-02T12:19:14.285Z,10.98
2023-03-02T12:21:45.158Z,11.67
2023-03-02T12:24:25.410Z,11.54
2023-03-02T12:27:03.321Z,10.65
2023-03-02T12:29:40.398Z,9.55
2023-03-02T12:32:14.809Z,10.56
2023-03-02T12:34:46.182Z,10.80
2023-03-02T12:37:22.472Z,9.98
2023-03-02T12:40:31.718Z,9.59
2023-03-02T12:43:26.442Z,8.74
2023-03-02T12:46:23.131Z,9.44
2023-03-02T12:49:00.458Z,8.82
2023-03-02T12:51:30.296Z,9.12
2023-03-02T12:54:07.525Z,9.02
2023-03-02T12:56:35.744Z,9.69
2023-03-02T12:59:03.704Z,8.69
2023-03-02T13:01:34.448Z,8.58
2023-03-02T13:04:02.359Z,8.65
2023-03-02T13:06:33.083Z,8.92
2023-03-02T13:09:01.397Z,9.35
2023-03-02T13:11:33.796Z,10.97
2023-03-02T13:14:03.891Z,11.03
2023-03-02T13:16:34.294Z,11.48
2023-03-02T13:19:06.963Z,10.65
2023-03-02T13:21:37.622Z,9.26
2023-03-02T13:24:21.507Z,9.37
2023-03-02T13:26:58.271Z,9.28
2023-03-02T13:29:30.957Z,10.27
2023-03-02T13:31:58.887Z,9.65
2023-03-02T13:34:28.705Z,9.16
2023-03-02T13:36:56.863Z,9.05
2023-03-02T13:39:28.814Z,7.93
2023-03-02T13:41:59.743Z,7.98
2023-03-02T13:44:30.392Z,8.09
2023-03-02T13:46:59.143Z,7.85
2023-03-02T13:49:29.488Z,7.64
2023-03-02T13:52:05.868Z,8.21
2023-03-02T13:54:37.497Z,8.26
2023-03-02T13:57:07.621Z,8.66
2023-03-02T13:59:36.422Z,8.39
2023-03-02T14:02:04.478Z,8.88
2023-03-02T14:04:32.408Z,8.95
2023-03-02T14:07:00.181Z,9.82
2023-03-02T14:09:28.131Z,9.54
2023-03-02T14:11:57.809Z,8.57
2023-03-02T14:14:28.740Z,8.45
2023-03-02T14:16:57.323Z,8.23
2023-03-02T14:19:25.099Z,9.04
2023-03-02T14:21:52.987Z,8.75
2023-03-02T14:24:20.725Z,8.12
2023-03-02T14:26:49.799Z,7.17
2023-03-02T14:29:22.993Z,7.99
2023-03-02T14:31:53.160Z,8.21
2023-03-02T14:34:21.202Z,8.83
2023-03-02T14:36:52.889Z,8.97
2023-03-02T14:39:23.303Z,9.17
2023-03-02T14:41:54.051Z,9.07
2023-03-02T14:44:23.009Z,8.66
2023-03-02T14:46:52.992Z,8.90
2023-03-02T14:49:21.553Z,8.80
2023-03-02T14:51:59.021Z,9.43
2023-03-02T14:54:27.513Z,9.17
2023-03-02T14:56:55.332Z,8.75
2023-03-02T14:59:23.201Z,8.42
2023-03-02T15:01:52.372Z,8.76
2023-03-02T15:04:20.172Z,9.18
2023-03-02T15:06:47.983Z,8.18
2023-03-02T15:09:15.907Z,8.53
2023-03-02T15:11:43.900Z,7.93
2023-03-02T15:14:11.647Z,8.69
2023-03-02T15:16:39.962Z,8.70
2023-03-02T15:19:09.529Z,7.96
2023-03-02T15:21:41.441Z,7.69
2023-03-02T15:24:11.341Z,7.54
2023-03-02T15:26:41.007Z,7.90
2023-03-02T15:29:09.416Z,7.24
2023-03-02T15:31:37.413Z,8.14
2023-03-02T15:34:05.272Z,7.93
2023-03-02T15:36:34.523Z,8.63
2023-03-02T15:39:02.417Z,8.39
2023-03-02T15:41:30.336Z,7.85
2023-03-02T15:43:58.122Z,8.06
2023-03-02T15:46:26.801Z,8.43
2023-03-02T15:48:54.650Z,9.40
2023-03-02T15:51:22.670Z,9.05
2023-03-02T15:53:51.853Z,8.42
2023-03-02T15:56:19.588Z,7.91
2023-03-02T15:58:48.347Z,8.27
2023-03-02T16:01:16.932Z,8.50
2023-03-02T16:03:45.283Z,8.46
2023-03-02T16:06:13.462Z,8.91
2023-03-02T16:08:41.328Z,9.15
2023-03-02T16:11:11.477Z,9.43
2023-03-02T16:13:39.398Z,8.10
2023-03-02T16:16:07.903Z,7.95
2023-03-02T16:18:35.726Z,7.51
2023-03-02T16:21:03.612Z,8.08
2023-03-02T16:23:31.358Z,8.06
2023-03-02T16:26:08.058Z,8.79
2023-03-02T16:28:37.812Z,8.73
2023-03-02T16:31:06.506Z,7.92
2023-03-02T16:33:34.721Z,7.95
2023-03-02T16:36:02.692Z,7.99
2023-03-02T16:38:30.580Z,8.39
2023-03-02T16:40:58.377Z,8.23
2023-03-02T16:43:26.345Z,8.10
2023-03-02T16:45:56.011Z,8.12
2023-03-02T16:48:24.259Z,7.68
2023-03-02T16:50:56.774Z,7.93
2023-03-02T16:53:24.664Z,7.59
2023-03-02T16:55:52.579Z,7.78
2023-03-02T16:58:20.360Z,7.26
2023-03-02T17:00:48.371Z,6.92
2023-03-02T17:03:17.946Z,6.65
2023-03-02T17:05:45.956Z,6.43
2023-03-02T17:08:15.803Z,6.76
2023-03-02T17:10:44.386Z,7.51
2023-03-02T17:13:15.319Z,7.08
2023-03-02T17:15:43.444Z,6.22
2023-03-02T17:18:11.830Z,6.59
2023-03-02T17:20:41.310Z,6.20
2023-03-02T17:23:11.911Z,6.12
2023-03-02T17:25:40.052Z,6.16
2023-03-02T17:28:14.921Z,7.07
2023-03-02T17:30:43.748Z,7.13
2023-03-02T17:33:12.388Z,6.36
2023-03-02T17:35:42.587Z,7.24
2023-03-02T17:38:11.589Z,7.46
2023-03-02T17:40:39.629Z,7.72
2023-03-02T17:43:08.304Z,8.33
2023-03-02T17:45:36.613Z,8.82
2023-03-02T17:48:05.700Z,9.03
2023-03-02T17:50:33.763Z,8.51
2023-03-02T17:53:03.273Z,7.89
2023-03-02T17:55:31.527Z,7.81
2023-03-02T17:58:00.790Z,7.40
2023-03-02T18:00:28.951Z,8.23
2023-03-02T18:02:57.228Z,8.13
2023-03-02T18:05:25.679Z,7.97
2023-03-02T18:07:54.769Z,6.74
2023-03-02T18:10:24.020Z,7.02
2023-03-02T18:12:54.340Z,7.58
2023-03-02T18:15:22.481Z,7.65
2023-03-02T18:17:50.592Z,7.31
2023-03-02T18:20:18.798Z,6.85
2023-03-02T18:22:47.187Z,7.26
2023-03-02T18:25:17.223Z,8.08
2023-03-02T18:27:46.932Z,7.97
2023-03-02T18:30:16.966Z,7.39
2023-03-02T18:32:47.988Z,7.81
2023-03-02T18:35:16.824Z,8.26
2023-03-02T18:37:48.464Z,8.09
2023-03-02T18:40:17.769Z,8.17
2023-03-02T18:42:47.989Z,8.16
2023-03-02T18:45:23.455Z,7.85
2023-03-02T18:47:52.710Z,7.99
2023-03-02T18:50:21.068Z,8.04
2023-03-02T18:52:50.606Z,8.05
2023-03-02T18:55:19.381Z,8.46
2023-03-02T18:57:49.323Z,8.58
2023-03-02T19:00:26.684Z,8.01
2023-03-02T19:02:56.614Z,8.23
2023-03-02T19:05:27.111Z,8.13
2023-03-02T19:07:57.578Z,8.94
2023-03-02T19:10:25.943Z,8.20
2023-03-02T19:12:58.962Z,9.20
2023-03-02T19:15:27.400Z,9.34
2023-03-02T19:17:57.266Z,7.68
2023-03-02T19:20:27.388Z,7.91
2023-03-02T19:22:55.795Z,8.21
2023-03-02T19:25:24.413Z,8.31
2023-03-02T19:27:52.352Z,7.83
2023-03-02T19:30:25.862Z,8.15
2023-03-02T19:32:55.471Z,7.80
2023-03-02T19:35:26.143Z,8.04
2023-03-02T19:37:54.902Z,7.82
2023-03-02T19:40:27.748Z,7.99
2023-03-02T19:42:58.220Z,8.22
2023-03-02T19:45:32.584Z,8.12
2023-03-02T19:48:01.740Z,7.71
2023-03-02T19:50:30.524Z,7.72
2023-03-02T19:53:00.092Z,7.83
2023-03-02T19:55:28.631Z,7.91
2023-03-02T19:58:02.071Z,7.85
2023-03-02T20:00:35.560Z,8.23
2023-03-02T20:03:05.924Z,8.43
2023-03-02T20:05:34.026Z,7.99
2023-03-02T20:08:01.950Z,8.50
2023-03-02T20:10:34.656Z,8.96
2023-03-02T20:13:03.771Z,9.16
2023-03-02T20:15:38.045Z,8.99
2023-03-02T20:18:08.456Z,8.73
2023-03-02T20:20:37.264Z,8.38
2023-03-02T20:23:05.338Z,8.14
2023-03-02T20:25:33.923Z,7.53
2023-03-02T20:28:05.723Z,7.77
2023-03-02T20:30:38.110Z,7.50
2023-03-02T20:33:07.986Z,7.84
2023-03-02T20:35:40.843Z,7.94
2023-03-02T20:38:10.438Z,7.81
2023-03-02T20:40:38.472Z,7.79
2023-03-02T20:43:06.880Z,7.90
2023-03-02T20:45:36.726Z,7.24
2023-03-02T20:48:05.637Z,7.32
2023-03-02T20:50:35.042Z,7.17
2023-03-02T20:53:04.119Z,7.63
2023-03-02T20:55:32.301Z,7.92
2023-03-02T20:58:01.169Z,7.63
2023-03-02T21:00:31.749Z,7.29
2023-03-02T21:03:01.125Z,6.57
2023-03-02T21:05:30.631Z,6.90
2023-03-02T21:07:58.960Z,6.45
2023-03-02T21:10:30.368Z,6.31
2023-03-02T21:12:58.969Z,6.76
2023-03-02T21:15:28.237Z,6.17
2023-03-02T21:17:56.825Z,7.07
2023-03-02T21:20:29.874Z,7.11
2023-03-02T21:22:57.913Z,6.86
2023-03-02T21:25:26.501Z,6.45
2023-03-02T21:27:55.368Z,7.16
2023-03-02T21:30:26.235Z,7.07
2023-03-02T21:32:54.786Z,6.93
2023-03-02T21:35:24.202Z,7.02
2023-03-02T21:37:59.616Z,6.41
2023-03-02T21:40:31.902Z,7.26
2023-03-02T21:43:01.797Z,7.60
2023-03-02T21:45:30.321Z,7.61
2023-03-02T21:47:58.378Z,7.25
2023-03-02T21:50:29.560Z,6.95
2023-03-02T21:52:59.637Z,6.14
2023-03-02T21:55:28.503Z,6.67
2023-03-02T21:57:57.331Z,6.10
2023-03-02T22:00:27.889Z,6.19
2023-03-02T22:02:56.224Z,6.17
2023-03-02T22:05:24.293Z,6.74
2023-03-02T22:07:52.777Z,6.71
2023-03-02T22:10:27.888Z,6.78
2023-03-02T22:12:58.521Z,6.68
2023-03-02T22:15:28.006Z,6.57
2023-03-02T22:17:56.693Z,6.44
2023-03-02T22:20:24.712Z,6.41
2023-03-02T22:22:55.642Z,6.61
2023-03-02T22:25:25.686Z,6.51
2023-03-02T22:27:57.220Z,6.69
2023-03-02T22:30:27.128Z,7.40
2023-03-02T22:32:54.994Z,7.15
2023-03-02T22:35:27.006Z,6.51
2023-03-02T22:38:02.631Z,6.41
2023-03-02T22:40:34.128Z,6.17
2023-03-02T22:43:13.100Z,6.05
2023-03-02T22:45:42.547Z,6.86
2023-03-02T22:48:17.623Z,7.09
2023-03-02T22:50:46.589Z,7.52
2023-03-02T22:53:24.982Z,7.39
2023-03-02T22:55:59.115Z,6.47
2023-03-02T22:58:33.162Z,6.46
2023-03-02T23:01:02.724Z,6.76
2023-03-02T23:03:39.813Z,6.92
2023-03-02T23:06:30.214Z,6.79
2023-03-02T23:08:59.995Z,6.41
2023-03-02T23:11:32.457Z,6.41
2023-03-02T23:14:01.853Z,7.47
2023-03-02T23:16:36.948Z,7.53
2023-03-02T23:19:05.936Z,7.35
2023-03-02T23:21:39.498Z,7.80
2023-03-02T23:24:08.859Z,7.29
2023-03-02T23:26:37.989Z,7.50
2023-03-02T23:29:07.995Z,7.18
2023-03-02T23:31:35.929Z,5.95
2023-03-02T23:34:03.770Z,6.66
2023-03-02T23:36:32.047Z,6.87
2023-03-02T23:38:59.795Z,7.01
2023-03-02T23:41:27.829Z,5.90
2023-03-02T23:43:55.632Z,6.78
2023-03-02T23:46:25.396Z,6.91
2023-03-02T23:48:53.571Z,7.10
2023-03-02T23:51:21.268Z,6.65
2023-03-02T23:53:49.020Z,6.57
2023-03-02T23:56:16.725Z,6.14
2023-03-02T23:58:44.566Z,6.01
